sensor_id;sensor_type;location;lat;lon;timestamp;pressure;altitude;pressure_sealevel;temperature;humidity
59289;BME280;45056;47.602;9.886;2023-04-01T00:00:56;91901.44;;;8.77;54.36
59289;BME280;45056;47.602;9.886;2023-04-01T00:03:25;91898.75;;;8.77;54.48
59289;BME280;45056;47.602;9.886;2023-04-01T00:05:55;91896.03;;;8.77;54.39
59289;BME280;45056;47.602;9.886;2023-04-01T00:08:24;91896.75;;;8.78;54.41
59289;BME280;45056;47.602;9.886;2023-04-01T00:10:54;91897.97;;;8.77;54.46
59289;BME280;45056;47.602;9.886;2023-04-01T00:13:23;91895.72;;;8.75;54.48
59289;BME280;45056;47.602;9.886;2023-04-01T00:15:53;91897.66;;;8.75;54.61
59289;BME280;45056;47.602;9.886;2023-04-01T00:18:22;91880.34;;;8.72;54.67
59289;BME280;45056;47.602;9.886;2023-04-01T00:20:52;91880.81;;;8.71;54.93
59289;BME280;45056;47.602;9.886;2023-04-01T00:23:20;91889.38;;;8.69;55.02
59289;BME280;45056;47.602;9.886;2023-04-01T00:25:49;91889.38;;;8.69;54.94
59289;BME280;45056;47.602;9.886;2023-04-01T00:28:19;91876.31;;;8.68;55.18
59289;BME280;45056;47.602;9.886;2023-04-01T00:30:48;91872.53;;;8.65;55.07
59289;BME280;45056;47.602;9.886;2023-04-01T00:33:16;91887.28;;;8.64;55.09
59289;BME280;45056;47.602;9.886;2023-04-01T00:35:44;91884.13;;;8.65;55.33
59289;BME280;45056;47.602;9.886;2023-04-01T00:38:13;91877.94;;;8.65;55.57
59289;BME280;45056;47.602;9.886;2023-04-01T00:40:45;91877.94;;;8.65;55.55
59289;BME280;45056;47.602;9.886;2023-04-01T00:43:16;91881.88;;;8.64;55.85
59289;BME280;45056;47.602;9.886;2023-04-01T00:45:50;91883.38;;;8.65;55.81
59289;BME280;45056;47.602;9.886;2023-04-01T00:48:21;91892.72;;;8.64;55.91
59289;BME280;45056;47.602;9.886;2023-04-01T00:50:57;91883.53;;;8.61;55.63
59289;BME280;45056;47.602;9.886;2023-04-01T00:53:32;91885.97;;;8.59;55.83
59289;BME280;45056;47.602;9.886;2023-04-01T00:56:10;91892.28;;;8.56;55.82
59289;BME280;45056;47.602;9.886;2023-04-01T00:58:46;91891.22;;;8.54;55.93
59289;BME280;45056;47.602;9.886;2023-04-01T01:01:20;91889.25;;;8.54;56.12
59289;BME280;45056;47.602;9.886;2023-04-01T01:03:51;91888.53;;;8.54;56.19
59289;BME280;45056;47.602;9.886;2023-04-01T01:06:32;91887.03;;;8.52;56.65
59289;BME280;45056;47.602;9.886;2023-04-01T01:09:28;91891.81;;;8.48;57.17
59289;BME280;45056;47.602;9.886;2023-04-01T01:12:09;91893.03;;;8.47;57.59
59289;BME280;45056;47.602;9.886;2023-04-01T01:14:53;91891.97;;;8.45;58.43
59289;BME280;45056;47.602;9.886;2023-04-01T01:17:42;91894.22;;;8.37;58.98
59289;BME280;45056;47.602;9.886;2023-04-01T01:20:49;91895.59;;;8.32;59.54
59289;BME280;45056;47.602;9.886;2023-04-01T01:24:13;91896.19;;;8.27;59.66
59289;BME280;45056;47.602;9.886;2023-04-01T01:27:07;91892.72;;;8.17;60.48
59289;BME280;45056;47.602;9.886;2023-04-01T01:29:57;91890.63;;;8.12;60.91
59289;BME280;45056;47.602;9.886;2023-04-01T01:33:20;91883.06;;;8.07;61.07
59289;BME280;45056;47.602;9.886;2023-04-01T01:36:06;91892.09;;;8.04;61.08
59289;BME280;45056;47.602;9.886;2023-04-01T01:38:40;91886.69;;;8.04;61.21
59289;BME280;45056;47.602;9.886;2023-04-01T01:41:12;91892.09;;;8.04;61.07
59289;BME280;45056;47.602;9.886;2023-04-01T01:43:46;91890.59;;;8.03;60.64
59289;BME280;45056;47.602;9.886;2023-04-01T01:46:23;91893.00;;;8.01;60.80
59289;BME280;45056;47.602;9.886;2023-04-01T01:48:55;91892.72;;;7.99;60.99
59289;BME280;45056;47.602;9.886;2023-04-01T01:51:27;91890.00;;;7.99;61.30
59289;BME280;45056;47.602;9.886;2023-04-01T01:53:55;91890.00;;;7.99;61.52
59289;BME280;45056;47.602;9.886;2023-04-01T01:56:27;91897.41;;;7.98;61.65
59289;BME280;45056;47.602;9.886;2023-04-01T01:59:03;91886.09;;;8.00;61.68
59289;BME280;45056;47.602;9.886;2023-04-01T02:01:41;91879.94;;;7.99;61.70
59289;BME280;45056;47.602;9.886;2023-04-01T02:04:13;91884.16;;;8.00;61.64
59289;BME280;45056;47.602;9.886;2023-04-01T02:06:50;91885.06;;;7.97;61.84
59289;BME280;45056;47.602;9.886;2023-04-01T02:09:23;91886.84;;;7.91;61.80
59289;BME280;45056;47.602;9.886;2023-04-01T02:11:56;91884.28;;;7.87;61.91
59289;BME280;45056;47.602;9.886;2023-04-01T02:14:37;91881.28;;;7.85;62.01
59289;BME280;45056;47.602;9.886;2023-04-01T02:17:14;91885.50;;;7.86;61.95
59289;BME280;45056;47.602;9.886;2023-04-01T02:19:49;91882.47;;;7.84;62.04
59289;BME280;45056;47.602;9.886;2023-04-01T02:22:25;91884.88;;;7.82;61.87
59289;BME280;45056;47.602;9.886;2023-04-01T02:24:58;91886.81;;;7.82;62.13
59289;BME280;45056;47.602;9.886;2023-04-01T02:27:30;91880.22;;;7.83;62.11
59289;BME280;45056;47.602;9.886;2023-04-01T02:29:59;91888.34;;;7.83;62.10
59289;BME280;45056;47.602;9.886;2023-04-01T02:32:29;91888.34;;;7.83;62.09
59289;BME280;45056;47.602;9.886;2023-04-01T02:35:01;91882.91;;;7.83;61.88
59289;BME280;45056;47.602;9.886;2023-04-01T02:37:33;91881.72;;;7.84;61.64
59289;BME280;45056;47.602;9.886;2023-04-01T02:40:03;91889.09;;;7.83;61.47
59289;BME280;45056;47.602;9.886;2023-04-01T02:42:34;91887.44;;;7.86;61.21
59289;BME280;45056;47.602;9.886;2023-04-01T02:45:02;91890.91;;;7.86;60.95
59289;BME280;45056;47.602;9.886;2023-04-01T02:47:30;91884.72;;;7.86;60.80
59289;BME280;45056;47.602;9.886;2023-04-01T02:49:58;91874.34;;;7.84;60.47
59289;BME280;45056;47.602;9.886;2023-04-01T02:52:28;91872.09;;;7.83;60.49
59289;BME280;45056;47.602;9.886;2023-04-01T02:54:58;91876.00;;;7.82;60.11
59289;BME280;45056;47.602;9.886;2023-04-01T02:57:26;91880.22;;;7.83;59.79
59289;BME280;45056;47.602;9.886;2023-04-01T02:59:54;91880.97;;;7.83;59.66
59289;BME280;45056;47.602;9.886;2023-04-01T03:02:22;91889.09;;;7.83;59.52
59289;BME280;45056;47.602;9.886;2023-04-01T03:04:50;91882.91;;;7.83;59.44
59289;BME280;45056;47.602;9.886;2023-04-01T03:07:18;91874.06;;;7.82;59.52
59289;BME280;45056;47.602;9.886;2023-04-01T03:09:46;91877.50;;;7.83;59.45
59289;BME280;45056;47.602;9.886;2023-04-01T03:12:15;91886.38;;;7.83;59.43
59289;BME280;45056;47.602;9.886;2023-04-01T03:14:43;91879.78;;;7.84;59.20
59289;BME280;45056;47.602;9.886;2023-04-01T03:17:11;91870.44;;;7.85;58.98
59289;BME280;45056;47.602;9.886;2023-04-01T03:19:39;91880.06;;;7.86;58.95
59289;BME280;45056;47.602;9.886;2023-04-01T03:22:09;91889.69;;;7.87;58.94
59289;BME280;45056;47.602;9.886;2023-04-01T03:24:38;91898.56;;;7.88;58.83
59289;BME280;45056;47.602;9.886;2023-04-01T03:27:06;91888.63;;;7.85;58.83
59289;BME280;45056;47.602;9.886;2023-04-01T03:29:35;91878.41;;;7.79;59.37
59289;BME280;45056;47.602;9.886;2023-04-01T03:32:04;91887.88;;;7.75;59.63
59289;BME280;45056;47.602;9.886;2023-04-01T03:34:32;91888.03;;;7.71;59.71
59289;BME280;45056;47.602;9.886;2023-04-01T03:37:00;91880.34;;;7.70;59.73
59289;BME280;45056;47.602;9.886;2023-04-01T03:39:28;91884.53;;;7.71;59.92
59289;BME280;45056;47.602;9.886;2023-04-01T03:41:56;91887.25;;;7.71;59.87
59289;BME280;45056;47.602;9.886;2023-04-01T03:44:25;91888.75;;;7.72;59.62
59289;BME280;45056;47.602;9.886;2023-04-01T03:46:54;91883.34;;;7.72;59.52
59289;BME280;45056;47.602;9.886;2023-04-01T03:49:22;91893.44;;;7.71;59.49
59289;BME280;45056;47.602;9.886;2023-04-01T03:51:50;91901.09;;;7.73;59.28
59289;BME280;45056;47.602;9.886;2023-04-01T03:54:18;91898.84;;;7.71;59.19
59289;BME280;45056;47.602;9.886;2023-04-01T03:56:46;91892.66;;;7.71;59.10
59289;BME280;45056;47.602;9.886;2023-04-01T03:59:14;91897.34;;;7.70;59.15
59289;BME280;45056;47.602;9.886;2023-04-01T04:01:42;91898.84;;;7.71;59.24
59289;BME280;45056;47.602;9.886;2023-04-01T04:04:12;91896.88;;;7.72;59.27
59289;BME280;45056;47.602;9.886;2023-04-01T04:06:41;91888.03;;;7.71;59.30
59289;BME280;45056;47.602;9.886;2023-04-01T04:09:09;91896.88;;;7.72;59.01
59289;BME280;45056;47.602;9.886;2023-04-01T04:11:37;91898.09;;;7.71;58.81
59289;BME280;45056;47.602;9.886;2023-04-01T04:14:05;91893.13;;;7.69;58.81
59289;BME280;45056;47.602;9.886;2023-04-01T04:16:34;91894.63;;;7.70;58.66
59289;BME280;45056;47.602;9.886;2023-04-01T04:19:03;91887.25;;;7.71;58.69
59289;BME280;45056;47.602;9.886;2023-04-01T04:21:33;91887.25;;;7.71;58.64
59289;BME280;45056;47.602;9.886;2023-04-01T04:24:03;91879.13;;;7.71;58.60
59289;BME280;45056;47.602;9.886;2023-04-01T04:26:31;91880.34;;;7.70;58.48
59289;BME280;45056;47.602;9.886;2023-04-01T04:29:00;91886.53;;;7.70;58.47
59289;BME280;45056;47.602;9.886;2023-04-01T04:31:28;91891.94;;;7.70;58.50
59289;BME280;45056;47.602;9.886;2023-04-01T04:33:58;91902.31;;;7.72;58.35
59289;BME280;45056;47.602;9.886;2023-04-01T04:36:27;91886.06;;;7.72;58.27
59289;BME280;45056;47.602;9.886;2023-04-01T04:38:57;91878.22;;;7.74;58.03
59289;BME280;45056;47.602;9.886;2023-04-01T04:41:28;91882.44;;;7.75;57.90
59289;BME280;45056;47.602;9.886;2023-04-01T04:43:56;91875.81;;;7.76;57.86
59289;BME280;45056;47.602;9.886;2023-04-01T04:46:25;91883.94;;;7.76;57.50
59289;BME280;45056;47.602;9.886;2023-04-01T04:48:53;91873.88;;;7.76;57.49
59289;BME280;45056;47.602;9.886;2023-04-01T04:51:22;91882.00;;;7.76;57.48
59289;BME280;45056;47.602;9.886;2023-04-01T04:53:50;91880.03;;;7.77;57.33
59289;BME280;45056;47.602;9.886;2023-04-01T04:56:21;91883.06;;;7.79;57.30
59289;BME280;45056;47.602;9.886;2023-04-01T04:58:52;91881.41;;;7.82;57.22
59289;BME280;45056;47.602;9.886;2023-04-01T05:01:21;91886.81;;;7.82;57.20
59289;BME280;45056;47.602;9.886;2023-04-01T05:03:49;91890.31;;;7.82;56.98
59289;BME280;45056;47.602;9.886;2023-04-01T05:06:18;91882.91;;;7.83;56.83
59289;BME280;45056;47.602;9.886;2023-04-01T05:08:47;91893.31;;;7.84;56.72
59289;BME280;45056;47.602;9.886;2023-04-01T05:11:17;91885.50;;;7.86;56.63
59289;BME280;45056;47.602;9.886;2023-04-01T05:13:48;91893.16;;;7.88;56.59
59289;BME280;45056;47.602;9.886;2023-04-01T05:16:18;91893.91;;;7.88;56.68
59289;BME280;45056;47.602;9.886;2023-04-01T05:18:47;91901.28;;;7.88;56.66
59289;BME280;45056;47.602;9.886;2023-04-01T05:21:15;91908.97;;;7.89;56.60
59289;BME280;45056;47.602;9.886;2023-04-01T05:23:43;91908.66;;;7.87;56.28
59289;BME280;45056;47.602;9.886;2023-04-01T05:26:13;91916.19;;;7.83;56.57
59289;BME280;45056;47.602;9.886;2023-04-01T05:28:42;91910.13;;;7.79;56.98
59289;BME280;45056;47.602;9.886;2023-04-01T05:31:12;91908.78;;;7.74;57.92
59289;BME280;45056;47.602;9.886;2023-04-01T05:33:41;91905.47;;;7.70;57.87
59289;BME280;45056;47.602;9.886;2023-04-01T05:36:11;91899.88;;;7.64;58.57
59289;BME280;45056;47.602;9.886;2023-04-01T05:38:43;91899.72;;;7.59;58.98
59289;BME280;45056;47.602;9.886;2023-04-01T05:41:12;91896.69;;;7.57;59.00
59289;BME280;45056;47.602;9.886;2023-04-01T05:43:41;91904.09;;;7.56;59.35
59289;BME280;45056;47.602;9.886;2023-04-01T05:46:09;91904.22;;;7.53;59.24
59289;BME280;45056;47.602;9.886;2023-04-01T05:48:39;91907.22;;;7.55;59.40
59289;BME280;45056;47.602;9.886;2023-04-01T05:51:12;91904.09;;;7.56;59.40
59289;BME280;45056;47.602;9.886;2023-04-01T05:53:42;91907.09;;;7.58;59.57
59289;BME280;45056;47.602;9.886;2023-04-01T05:56:10;91908.59;;;7.59;59.33
59289;BME280;45056;47.602;9.886;2023-04-01T05:58:38;91901.53;;;7.62;59.35
59289;BME280;45056;47.602;9.886;2023-04-01T06:01:08;91910.41;;;7.62;59.21
59289;BME280;45056;47.602;9.886;2023-04-01T06:03:39;91910.72;;;7.64;59.32
59289;BME280;45056;47.602;9.886;2023-04-01T06:06:14;91915.69;;;7.66;59.21
59289;BME280;45056;47.602;9.886;2023-04-01T06:08:51;91914.94;;;7.65;59.02
59289;BME280;45056;47.602;9.886;2023-04-01T06:11:31;91920.66;;;7.68;58.91
59289;BME280;45056;47.602;9.886;2023-04-01T06:14:22;91925.16;;;7.71;58.84
59289;BME280;45056;47.602;9.886;2023-04-01T06:17:17;91919.63;;;7.74;58.58
59289;BME280;45056;47.602;9.886;2023-04-01T06:20:03;91919.47;;;7.78;58.38
59289;BME280;45056;47.602;9.886;2023-04-01T06:22:54;91921.28;;;7.81;58.31
59289;BME280;45056;47.602;9.886;2023-04-01T06:26:02;91916.91;;;7.84;57.91
59289;BME280;45056;47.602;9.886;2023-04-01T06:35:11;91910.78;;;7.92;58.36
59289;BME280;45056;47.602;9.886;2023-04-01T06:38:10;91925.53;;;8.01;58.47
59289;BME280;45056;47.602;9.886;2023-04-01T06:41:16;91927.63;;;8.06;58.13
59289;BME280;45056;47.602;9.886;2023-04-01T06:44:16;91921.94;;;8.13;57.77
59289;BME280;45056;47.602;9.886;2023-04-01T06:46:58;91913.22;;;8.18;57.17
59289;BME280;45056;47.602;9.886;2023-04-01T06:49:48;91922.66;;;8.23;57.27
59289;BME280;45056;47.602;9.886;2023-04-01T06:52:34;91918.31;;;8.26;57.10
59289;BME280;45056;47.602;9.886;2023-04-01T06:55:24;91912.47;;;8.27;56.80
59289;BME280;45056;47.602;9.886;2023-04-01T06:58:03;91925.84;;;8.31;56.77
59289;BME280;45056;47.602;9.886;2023-04-01T07:00:37;91906.88;;;8.31;56.80
59289;BME280;45056;47.602;9.886;2023-04-01T07:03:20;91919.50;;;8.34;56.75
59289;BME280;45056;47.602;9.886;2023-04-01T07:05:53;91919.06;;;8.35;56.69
59289;BME280;45056;47.602;9.886;2023-04-01T07:08:29;91914.69;;;8.38;56.48
59289;BME280;45056;47.602;9.886;2023-04-01T07:11:04;91921.63;;;8.39;56.34
59289;BME280;45056;47.602;9.886;2023-04-01T07:13:41;91920.72;;;8.42;56.43
59289;BME280;45056;47.602;9.886;2023-04-01T07:16:19;91917.41;;;8.47;56.50
59289;BME280;45056;47.602;9.886;2023-04-01T07:18:59;91908.72;;;8.52;56.24
59289;BME280;45056;47.602;9.886;2023-04-01T07:21:37;91921.94;;;8.60;55.97
59289;BME280;45056;47.602;9.886;2023-04-01T07:24:17;91916.69;;;8.65;55.92
59289;BME280;45056;47.602;9.886;2023-04-01T07:26:55;91907.94;;;8.71;56.00
59289;BME280;45056;47.602;9.886;2023-04-01T07:29:25;91900.69;;;8.77;56.07
59289;BME280;45056;47.602;9.886;2023-04-01T07:32:12;91898.13;;;8.83;55.48
59289;BME280;45056;47.602;9.886;2023-04-01T07:35:03;91895.84;;;8.81;55.32
59289;BME280;45056;47.602;9.886;2023-04-01T07:37:47;91893.44;;;8.83;55.14
59289;BME280;45056;47.602;9.886;2023-04-01T07:40:36;91905.63;;;8.88;55.18
59289;BME280;45056;47.602;9.886;2023-04-01T07:43:33;91901.84;;;8.94;55.45
59289;BME280;45056;47.602;9.886;2023-04-01T07:46:22;91901.38;;;8.96;55.42
59289;BME280;45056;47.602;9.886;2023-04-01T07:49:10;91906.66;;;9.00;55.53
59289;BME280;45056;47.602;9.886;2023-04-01T07:51:52;91906.81;;;9.05;55.12
59289;BME280;45056;47.602;9.886;2023-04-01T07:54:32;91909.63;;;9.11;55.17
59289;BME280;45056;47.602;9.886;2023-04-01T07:57:15;91908.88;;;9.20;55.27
59289;BME280;45056;47.602;9.886;2023-04-01T07:59:58;91915.16;;;9.26;54.64
59289;BME280;45056;47.602;9.886;2023-04-01T08:02:50;91918.31;;;9.34;54.52
59289;BME280;45056;47.602;9.886;2023-04-01T08:05:37;91911.81;;;9.41;53.74
59289;BME280;45056;47.602;9.886;2023-04-01T08:08:18;91920.06;;;9.46;53.84
59289;BME280;45056;47.602;9.886;2023-04-01T08:10:59;91922.16;;;9.51;53.87
59289;BME280;45056;47.602;9.886;2023-04-01T08:13:42;91921.53;;;9.57;53.88
59289;BME280;45056;47.602;9.886;2023-04-01T08:16:28;91918.34;;;9.58;53.63
59289;BME280;45056;47.602;9.886;2023-04-01T08:19:15;91917.44;;;9.61;53.26
59289;BME280;45056;47.602;9.886;2023-04-01T08:21:58;91924.84;;;9.61;53.22
59289;BME280;45056;47.602;9.886;2023-04-01T08:24:37;91929.81;;;9.62;53.09
59289;BME280;45056;47.602;9.886;2023-04-01T08:27:16;91916.06;;;9.66;52.97
59289;BME280;45056;47.602;9.886;2023-04-01T08:29:57;91925.94;;;9.78;53.02
59289;BME280;45056;47.602;9.886;2023-04-01T08:32:34;91903.41;;;9.87;52.68
59289;BME280;45056;47.602;9.886;2023-04-01T08:35:13;91921.06;;;9.92;53.19
59289;BME280;45056;47.602;9.886;2023-04-01T08:37:45;91921.34;;;9.94;53.23
59289;BME280;45056;47.602;9.886;2023-04-01T08:43:48;91917.47;;;9.86;53.94
59289;BME280;45056;47.602;9.886;2023-04-01T08:50:05;91916.78;;;9.76;54.39
59289;BME280;45056;47.602;9.886;2023-04-01T08:53:00;91919.00;;;9.77;54.60
59289;BME280;45056;47.602;9.886;2023-04-01T08:55:44;91911.22;;;9.70;54.29
59289;BME280;45056;47.602;9.886;2023-04-01T08:58:47;91919.22;;;9.64;54.61
59289;BME280;45056;47.602;9.886;2023-04-01T09:01:53;91926.34;;;9.62;54.89
59289;BME280;45056;47.602;9.886;2023-04-01T09:05:18;91929.22;;;9.58;55.16
59289;BME280;45056;47.602;9.886;2023-04-01T09:08:25;91929.84;;;9.53;56.02
59289;BME280;45056;47.602;9.886;2023-04-01T09:11:17;91925.03;;;9.48;56.15
59289;BME280;45056;47.602;9.886;2023-04-01T09:14:17;91932.13;;;9.45;56.64
59289;BME280;45056;47.602;9.886;2023-04-01T09:17:27;91931.09;;;9.43;57.09
59289;BME280;45056;47.602;9.886;2023-04-01T09:20:37;91913.03;;;9.40;57.44
59289;BME280;45056;47.602;9.886;2023-04-01T09:23:36;91922.09;;;9.36;57.41
59289;BME280;45056;47.602;9.886;2023-04-01T09:26:42;91929.91;;;9.34;57.81
59289;BME280;45056;47.602;9.886;2023-04-01T09:29:50;91941.97;;;9.33;58.12
59289;BME280;45056;47.602;9.886;2023-04-01T09:36:38;91954.34;;;9.34;58.86
59289;BME280;45056;47.602;9.886;2023-04-01T09:39:33;91945.91;;;9.32;58.78
59289;BME280;45056;47.602;9.886;2023-04-01T09:42:26;91953.94;;;9.27;58.55
59289;BME280;45056;47.602;9.886;2023-04-01T09:45:18;91947.44;;;9.24;58.88
59289;BME280;45056;47.602;9.886;2023-04-01T09:48:19;91945.94;;;9.23;59.35
59289;BME280;45056;47.602;9.886;2023-04-01T09:51:09;91955.00;;;9.20;59.00
59289;BME280;45056;47.602;9.886;2023-04-01T09:54:02;91946.09;;;9.19;59.66
59289;BME280;45056;47.602;9.886;2023-04-01T09:57:03;91953.94;;;9.17;59.42
59289;BME280;45056;47.602;9.886;2023-04-01T10:03:41;91953.22;;;8.98;59.46
59289;BME280;45056;47.602;9.886;2023-04-01T10:07:17;91967.88;;;8.91;59.89
59289;BME280;45056;47.602;9.886;2023-04-01T10:14:24;91976.63;;;8.77;60.52
59289;BME280;45056;47.602;9.886;2023-04-01T10:17:40;91960.06;;;8.65;60.70
59289;BME280;45056;47.602;9.886;2023-04-01T10:20:45;91957.97;;;8.60;61.14
59289;BME280;45056;47.602;9.886;2023-04-01T10:23:53;91957.19;;;8.60;61.81
59289;BME280;45056;47.602;9.886;2023-04-01T10:30:17;91949.66;;;8.64;61.97
59289;BME280;45056;47.602;9.886;2023-04-01T10:39:38;91965.63;;;8.62;61.99
59289;BME280;45056;47.602;9.886;2023-04-01T10:46:30;91960.22;;;8.62;62.05
59289;BME280;45056;47.602;9.886;2023-04-01T10:49:43;91964.13;;;8.61;62.13
59289;BME280;45056;47.602;9.886;2023-04-01T10:52:54;91975.44;;;8.59;62.30
59289;BME280;45056;47.602;9.886;2023-04-01T11:03:20;91950.44;;;8.64;63.54
59289;BME280;45056;47.602;9.886;2023-04-01T11:06:59;91939.41;;;8.68;63.20
59289;BME280;45056;47.602;9.886;2023-04-01T11:10:23;91934.13;;;8.74;63.22
59289;BME280;45056;47.602;9.886;2023-04-01T11:17:01;91938.63;;;8.86;62.66
59289;BME280;45056;47.602;9.886;2023-04-01T11:23:37;91942.97;;;9.02;62.77
59289;BME280;45056;47.602;9.886;2023-04-01T11:26:33;91939.97;;;9.09;61.88
59289;BME280;45056;47.602;9.886;2023-04-01T11:32:39;91935.13;;;9.04;60.23
59289;BME280;45056;47.602;9.886;2023-04-01T11:38:42;91932.72;;;9.06;60.50
59289;BME280;45056;47.602;9.886;2023-04-01T11:41:32;91941.16;;;9.08;60.78
59289;BME280;45056;47.602;9.886;2023-04-01T11:44:16;91940.41;;;9.08;60.23
59289;BME280;45056;47.602;9.886;2023-04-01T11:47:04;91945.38;;;9.09;60.06
59289;BME280;45056;47.602;9.886;2023-04-01T11:50:00;91936.47;;;9.09;60.62
59289;BME280;45056;47.602;9.886;2023-04-01T11:53:10;91952.63;;;9.13;60.88
59289;BME280;45056;47.602;9.886;2023-04-01T11:56:14;91953.34;;;9.13;60.75
59289;BME280;45056;47.602;9.886;2023-04-01T11:59:27;91942.78;;;9.15;60.83
59289;BME280;45056;47.602;9.886;2023-04-01T12:02:14;91944.59;;;9.18;61.01
59289;BME280;45056;47.602;9.886;2023-04-01T12:05:02;91944.44;;;9.22;60.96
59289;BME280;45056;47.602;9.886;2023-04-01T12:07:55;91947.75;;;9.26;60.43
59289;BME280;45056;47.602;9.886;2023-04-01T12:10:39;91948.63;;;9.32;60.80
59289;BME280;45056;47.602;9.886;2023-04-01T12:13:31;91948.31;;;9.40;60.52
59289;BME280;45056;47.602;9.886;2023-04-01T12:16:25;91950.41;;;9.45;59.36
59289;BME280;45056;47.602;9.886;2023-04-01T12:19:13;91952.94;;;9.48;59.68
59289;BME280;45056;47.602;9.886;2023-04-01T12:21:59;91959.28;;;9.55;60.42
59289;BME280;45056;47.602;9.886;2023-04-01T12:24:47;91955.47;;;9.61;60.10
59289;BME280;45056;47.602;9.886;2023-04-01T12:27:41;91946.84;;;9.63;59.27
59289;BME280;45056;47.602;9.886;2023-04-01T12:30:35;91953.03;;;9.63;59.09
59289;BME280;45056;47.602;9.886;2023-04-01T12:33:37;91956.03;;;9.65;58.93
59289;BME280;45056;47.602;9.886;2023-04-01T12:36:31;91946.69;;;9.66;58.50
59289;BME280;45056;47.602;9.886;2023-04-01T12:39:22;91954.66;;;9.70;59.12
59289;BME280;45056;47.602;9.886;2023-04-01T12:42:10;91948.50;;;9.70;58.06
59289;BME280;45056;47.602;9.886;2023-04-01T12:45:00;91940.34;;;9.70;58.22
59289;BME280;45056;47.602;9.886;2023-04-01T12:48:02;91947.56;;;9.73;58.25
59289;BME280;45056;47.602;9.886;2023-04-01T12:51:01;91941.03;;;9.79;58.62
59289;BME280;45056;47.602;9.886;2023-04-01T12:54:22;91951.91;;;9.79;58.68
59289;BME280;45056;47.602;9.886;2023-04-01T12:57:33;91950.00;;;9.71;58.45
59289;BME280;45056;47.602;9.886;2023-04-01T13:00:28;91955.31;;;9.65;59.07
59289;BME280;45056;47.602;9.886;2023-04-01T13:03:25;91961.66;;;9.62;59.72
59289;BME280;45056;47.602;9.886;2023-04-01T13:06:37;91963.31;;;9.59;59.92
59289;BME280;45056;47.602;9.886;2023-04-01T13:09:26;91960.16;;;9.61;59.58
59289;BME280;45056;47.602;9.886;2023-04-01T13:12:27;91958.00;;;9.65;60.07
59289;BME280;45056;47.602;9.886;2023-04-01T13:15:26;91956.81;;;9.66;60.08
59289;BME280;45056;47.602;9.886;2023-04-01T13:18:11;91969.81;;;9.62;60.19
59289;BME280;45056;47.602;9.886;2023-04-01T13:20:59;91975.84;;;9.57;60.55
59289;BME280;45056;47.602;9.886;2023-04-01T13:23:46;91997.44;;;9.51;61.01
59289;BME280;45056;47.602;9.886;2023-04-01T13:26:28;91978.47;;;9.42;61.52
59289;BME280;45056;47.602;9.886;2023-04-01T13:29:11;91990.09;;;9.33;61.39
59289;BME280;45056;47.602;9.886;2023-04-01T13:32:03;91993.16;;;9.26;61.65
59289;BME280;45056;47.602;9.886;2023-04-01T13:34:56;91980.50;;;9.22;62.03
59289;BME280;45056;47.602;9.886;2023-04-01T13:37:49;91980.00;;;9.24;62.21
59289;BME280;45056;47.602;9.886;2023-04-01T13:40:41;91975.94;;;9.29;62.33
59289;BME280;45056;47.602;9.886;2023-04-01T13:43:30;91968.69;;;9.35;62.66
59289;BME280;45056;47.602;9.886;2023-04-01T13:46:33;91970.63;;;9.44;62.50
59289;BME280;45056;47.602;9.886;2023-04-01T13:49:43;91976.94;;;9.50;62.55
59289;BME280;45056;47.602;9.886;2023-04-01T13:52:36;91979.03;;;9.55;62.37
59289;BME280;45056;47.602;9.886;2023-04-01T13:55:31;91987.16;;;9.55;62.73
59289;BME280;45056;47.602;9.886;2023-04-01T13:58:45;91980.69;;;9.52;62.70
59289;BME280;45056;47.602;9.886;2023-04-01T14:01:33;91987.22;;;9.46;62.72
59289;BME280;45056;47.602;9.886;2023-04-01T14:04:34;91993.84;;;9.35;62.98
59289;BME280;45056;47.602;9.886;2023-04-01T14:07:42;92012.59;;;9.24;63.51
59289;BME280;45056;47.602;9.886;2023-04-01T14:10:34;92004.78;;;9.07;63.32
59289;BME280;45056;47.602;9.886;2023-04-01T14:13:20;92022.56;;;8.90;63.54
59289;BME280;45056;47.602;9.886;2023-04-01T14:19:11;92005.25;;;8.59;64.47
59289;BME280;45056;47.602;9.886;2023-04-01T14:22:02;92000.41;;;8.54;64.96
59289;BME280;45056;47.602;9.886;2023-04-01T14:25:03;91996.66;;;8.51;65.06
59289;BME280;45056;47.602;9.886;2023-04-01T14:27:59;91995.47;;;8.52;65.50
59289;BME280;45056;47.602;9.886;2023-04-01T14:30:46;91996.38;;;8.59;65.67
59289;BME280;45056;47.602;9.886;2023-04-01T14:33:38;91994.56;;;8.65;66.20
59289;BME280;45056;47.602;9.886;2023-04-01T14:36:46;91985.81;;;8.70;66.23
59289;BME280;45056;47.602;9.886;2023-04-01T14:43:03;91979.78;;;8.85;66.20
59289;BME280;45056;47.602;9.886;2023-04-01T14:46:06;91978.44;;;8.89;66.05
59289;BME280;45056;47.602;9.886;2023-04-01T14:48:53;91984.28;;;8.97;66.01
59289;BME280;45056;47.602;9.886;2023-04-01T14:51:31;91983.84;;;8.99;65.64
59289;BME280;45056;47.602;9.886;2023-04-01T14:54:08;91983.38;;;9.00;65.71
59289;BME280;45056;47.602;9.886;2023-04-01T14:56:51;91981.25;;;9.04;65.65
59289;BME280;45056;47.602;9.886;2023-04-01T14:59:39;91986.22;;;9.06;65.61
59289;BME280;45056;47.602;9.886;2023-04-01T15:02:24;91990.44;;;9.07;65.48
59289;BME280;45056;47.602;9.886;2023-04-01T15:05:27;91985.63;;;9.11;65.39
59289;BME280;45056;47.602;9.886;2023-04-01T15:08:15;91981.69;;;9.12;65.01
59289;BME280;45056;47.602;9.886;2023-04-01T15:11:17;91978.53;;;9.14;64.98
59289;BME280;45056;47.602;9.886;2023-04-01T15:14:09;91983.34;;;9.19;64.95
59289;BME280;45056;47.602;9.886;2023-04-01T15:17:02;91992.09;;;9.23;64.80
59289;BME280;45056;47.602;9.886;2023-04-01T15:20:03;91982.09;;;9.29;64.76
59289;BME280;45056;47.602;9.886;2023-04-01T15:23:02;91984.69;;;9.33;64.29
59289;BME280;45056;47.602;9.886;2023-04-01T15:26:01;91979.09;;;9.36;64.03
59289;BME280;45056;47.602;9.886;2023-04-01T15:28:53;91981.03;;;9.36;63.52
59289;BME280;45056;47.602;9.886;2023-04-01T15:31:42;91982.56;;;9.37;62.97
59289;BME280;45056;47.602;9.886;2023-04-01T15:34:32;91974.84;;;9.35;62.64
59289;BME280;45056;47.602;9.886;2023-04-01T15:37:16;91992.34;;;9.34;62.42
59289;BME280;45056;47.602;9.886;2023-04-01T15:39:56;91999.00;;;9.33;62.70
59289;BME280;45056;47.602;9.886;2023-04-01T15:42:46;92001.69;;;9.33;63.04